Virgin Gorda, British Virgin Islands
Current Conditions -  °F | °C
As of 10:00 PM on Monday 22 Dec 2014 (Local Time) from TUPJ Reporting Station
Few Clouds Few Clouds  
Wind Chill: 79°   Ceiling: Unl
Heat Index: 82°   Visibility: 6mi
Dew Point: 72°   Wind: 8mph
Humidity: 78%   Direction: 110°ESE
Pressure: 30.03"   Gusts: NA
Location:  18.45°N, 64.43°W
Report Text: TUPJ 230200Z 11007KT 9999 FEW022 26/22 Q1017 RMK A3004
Loading
Personal Weather Stations






























Interactive Weather Map New forecast layout! Learn more

10-Day Weather Forecast

Advertisements
Track Severe Weather on mobile